Main page
METAR-TAF:

METAR-TAF

Airports :

Chengdu, China

Chengdu Shuangliu International Airport

latitude: 30-40N, longitude: 104-01E, elevation: 508 m

Current weather observation

The report was made 24 minutes ago, at 10:00 UTC
Wind 6 kt from the South
Temperature 29°C
Humidity 43%
Pressure 1007 hPa
Visibility 10 km or more
no clouds below 1500 m and no cumulonimbus

METAR: ZUUU 281000Z 19003MPS CAVOK 29/15 Q1007 NOSIG

Time: 18:24 (10:24 UTC)

Forecast

The report was made 8 hours and 20 minutes ago, at 02:04 UTC
Forecast valid from 28 at 06 UTC to 29 at 06 UTC
Wind 6 kt from the South/Southwest
Visibility: 5000 m
Scattered clouds at a height of 5000 ft
mist
Temporary
from 28 at 18 UTC to 28 at 22 UTC
Few clouds at a height of 3000 ft, Cumulonimbus.
Scattered clouds at a height of 3000 ft
light rain showers

TAF: ZUUU 280204Z 2806/2906 20003MPS 5000 BR SCT050 TX31/2808Z TN22/2823Z TEMPO 2818/2822 -SHRA FEW030CB SCT030

Weather observations and forecasts of more than 4000 airports (METAR and TAF reports).

The available stations are represented by yellow and red dots on the map.

Hover mouse over dot to see the name of the station.

Then click to see weather observations and forecasts.

To change the map : click on the green buttons with a black cross to zoom in, on the green button with a dash to zoom out, or on the green arrows for adjacent maps.


METAR-TAF: